createdAt,value
2017-04-30T00:01:44.040Z,4.78
2017-04-30T00:04:10.410Z,5.23
2017-04-30T00:06:36.806Z,5.43
2017-04-30T00:09:03.236Z,5.43
2017-04-30T00:11:29.649Z,5.04
2017-04-30T00:13:56.000Z,4.33
2017-04-30T00:16:22.385Z,5.57
2017-04-30T00:18:48.757Z,4.22
2017-04-30T00:21:15.291Z,5.25
2017-04-30T00:23:41.828Z,4.79
2017-04-30T00:26:08.214Z,4.40
2017-04-30T00:28:34.580Z,5.00
2017-04-30T00:31:00.944Z,4.10
2017-04-30T00:33:27.548Z,5.15
2017-04-30T00:35:54.095Z,5.18
2017-04-30T00:38:20.682Z,3.87
2017-04-30T00:40:47.064Z,5.98
2017-04-30T00:43:14.910Z,3.76
2017-04-30T00:45:41.316Z,4.33
2017-04-30T00:48:08.164Z,5.34
2017-04-30T00:50:34.518Z,5.53
2017-04-30T00:53:01.384Z,5.80
2017-04-30T00:55:27.714Z,4.34
2017-04-30T00:57:54.350Z,3.61
2017-04-30T01:00:20.785Z,3.59
2017-04-30T01:02:47.137Z,5.15
2017-04-30T01:05:13.504Z,3.98
2017-04-30T01:07:39.915Z,4.30
2017-04-30T01:10:06.244Z,4.42
2017-04-30T01:12:32.604Z,4.45
2017-04-30T01:14:58.981Z,4.17
2017-04-30T01:17:25.512Z,4.60
2017-04-30T01:19:51.845Z,3.74
2017-04-30T01:22:18.218Z,3.36
2017-04-30T01:24:44.570Z,3.41
2017-04-30T01:27:11.113Z,3.77
2017-04-30T01:29:37.433Z,4.40
2017-04-30T01:32:03.873Z,3.60
2017-04-30T01:34:30.185Z,3.91
2017-04-30T01:36:56.848Z,3.41
2017-04-30T01:39:23.189Z,3.93
2017-04-30T01:41:50.045Z,4.18
2017-04-30T01:44:18.154Z,3.28
2017-04-30T01:46:46.237Z,3.72
2017-04-30T01:49:15.119Z,3.32
2017-04-30T01:51:43.224Z,3.59
2017-04-30T01:54:11.668Z,3.77
2017-04-30T01:56:39.278Z,2.94
2017-04-30T01:59:07.155Z,2.94
2017-04-30T02:01:36.795Z,2.75
2017-04-30T02:04:03.171Z,2.65
2017-04-30T02:06:29.486Z,2.63
2017-04-30T02:08:55.786Z,2.91
2017-04-30T02:11:22.133Z,2.90
2017-04-30T02:13:48.481Z,3.39
2017-04-30T02:16:14.811Z,3.34
2017-04-30T02:18:41.104Z,3.46
2017-04-30T02:21:07.485Z,3.21
2017-04-30T02:23:33.816Z,2.87
2017-04-30T02:26:00.137Z,3.21
2017-04-30T02:28:26.442Z,4.01
2017-04-30T02:30:52.799Z,4.08
2017-04-30T02:33:19.131Z,4.52
2017-04-30T02:35:45.489Z,3.50
2017-04-30T02:38:11.839Z,3.62
2017-04-30T02:40:38.368Z,2.69
2017-04-30T02:43:04.691Z,2.88
2017-04-30T02:45:31.009Z,3.04
2017-04-30T02:47:57.555Z,2.63
2017-04-30T02:50:24.010Z,2.84
2017-04-30T02:52:50.360Z,3.59
2017-04-30T02:55:16.720Z,3.47
2017-04-30T02:57:43.041Z,2.74
2017-04-30T03:00:09.543Z,2.65
2017-04-30T03:02:35.929Z,3.00
2017-04-30T03:05:02.305Z,3.38
2017-04-30T03:07:28.616Z,2.53
2017-04-30T03:09:54.944Z,2.35
2017-04-30T03:12:21.264Z,2.21
2017-04-30T03:14:47.621Z,1.90
2017-04-30T03:17:13.992Z,2.85
2017-04-30T03:19:40.331Z,2.40
2017-04-30T03:22:06.653Z,3.10
2017-04-30T03:24:33.025Z,2.41
2017-04-30T03:26:59.362Z,3.62
2017-04-30T03:29:25.721Z,2.88
2017-04-30T03:31:52.057Z,3.50
2017-04-30T03:34:18.425Z,2.28
2017-04-30T03:36:44.853Z,2.63
2017-04-30T03:39:23.286Z,2.74
2017-04-30T03:42:01.721Z,3.15
2017-04-30T03:44:40.317Z,1.94
2017-04-30T03:47:18.703Z,3.42
2017-04-30T03:49:57.211Z,2.15
2017-04-30T03:52:35.616Z,3.35
2017-04-30T03:55:14.102Z,2.00
2017-04-30T03:57:52.481Z,2.69
2017-04-30T04:00:31.148Z,2.82
2017-04-30T04:03:09.568Z,2.05
2017-04-30T04:05:47.978Z,1.75
2017-04-30T04:08:26.417Z,2.05
2017-04-30T04:11:04.745Z,2.85
2017-04-30T04:13:43.050Z,1.97
2017-04-30T04:16:21.612Z,2.56
2017-04-30T04:19:00.121Z,2.20
2017-04-30T04:21:38.565Z,2.00
2017-04-30T04:24:17.066Z,1.79
2017-04-30T04:26:55.541Z,2.20
2017-04-30T04:29:34.037Z,2.03
2017-04-30T04:32:12.504Z,2.49
2017-04-30T04:34:50.841Z,1.95
2017-04-30T04:37:29.344Z,2.12
2017-04-30T04:40:07.845Z,2.22
2017-04-30T04:42:46.262Z,2.77
2017-04-30T04:45:24.664Z,2.23
2017-04-30T04:48:03.462Z,1.88
2017-04-30T04:50:42.026Z,2.43
2017-04-30T04:53:20.502Z,2.30
2017-04-30T04:55:59.071Z,2.75
2017-04-30T04:58:37.458Z,3.49
2017-04-30T05:01:15.875Z,2.54
2017-04-30T05:03:54.399Z,2.39
2017-04-30T05:06:32.981Z,2.74
2017-04-30T05:09:11.342Z,2.41
2017-04-30T05:11:49.814Z,2.46
2017-04-30T05:14:28.216Z,2.77
2017-04-30T05:17:06.766Z,3.21
2017-04-30T05:19:45.293Z,3.17
2017-04-30T05:22:23.896Z,3.28
2017-04-30T05:25:02.362Z,3.45
2017-04-30T05:27:40.754Z,3.42
2017-04-30T05:30:19.187Z,3.66
2017-04-30T05:32:57.610Z,3.83
2017-04-30T05:35:36.010Z,3.69
2017-04-30T05:38:14.432Z,3.98
2017-04-30T05:40:52.866Z,3.94
2017-04-30T05:43:31.192Z,4.08
2017-04-30T05:46:09.668Z,4.04
2017-04-30T05:48:48.047Z,4.18
2017-04-30T05:51:26.390Z,4.41
2017-04-30T05:54:04.878Z,4.54
2017-04-30T05:56:43.423Z,4.90
2017-04-30T05:59:21.806Z,4.60
2017-04-30T06:02:00.446Z,4.70
2017-04-30T06:04:38.933Z,4.83
2017-04-30T06:07:17.379Z,5.00
2017-04-30T06:09:55.817Z,5.13
2017-04-30T06:12:34.466Z,5.43
2017-04-30T06:15:13.003Z,5.56
2017-04-30T06:17:51.587Z,5.82
2017-04-30T06:20:30.157Z,5.88
2017-04-30T06:23:08.590Z,5.84
2017-04-30T06:25:47.138Z,6.26
2017-04-30T06:28:25.565Z,6.01
2017-04-30T06:31:04.699Z,6.45
2017-04-30T06:33:43.105Z,6.64
2017-04-30T06:36:21.570Z,6.73
2017-04-30T06:39:00.076Z,7.09
2017-04-30T06:41:38.442Z,7.15
2017-04-30T06:44:17.023Z,7.32
2017-04-30T06:46:55.551Z,7.60
2017-04-30T06:49:34.015Z,7.57
2017-04-30T06:52:12.406Z,8.04
2017-04-30T06:54:50.746Z,8.23
2017-04-30T06:57:29.366Z,8.12
2017-04-30T07:00:07.781Z,8.36
2017-04-30T07:02:46.253Z,8.49
2017-04-30T07:05:24.753Z,8.92
2017-04-30T07:08:03.164Z,8.64
2017-04-30T07:10:41.512Z,9.03
2017-04-30T07:13:19.855Z,9.08
2017-04-30T07:15:58.231Z,9.20
2017-04-30T07:18:36.695Z,9.46
2017-04-30T07:21:15.081Z,9.59
2017-04-30T07:23:53.533Z,9.94
2017-04-30T07:26:31.875Z,9.97
2017-04-30T07:29:10.224Z,10.12
2017-04-30T07:31:48.822Z,10.31
2017-04-30T07:34:27.257Z,10.73
2017-04-30T07:37:05.814Z,10.68
2017-04-30T07:39:44.280Z,10.69
2017-04-30T07:42:22.787Z,10.84
2017-04-30T07:44:49.164Z,10.90
2017-04-30T07:47:15.493Z,10.99
2017-04-30T07:49:41.876Z,11.42
2017-04-30T07:52:08.222Z,11.68
2017-04-30T07:54:34.542Z,11.35
2017-04-30T07:57:00.880Z,11.34
2017-04-30T07:59:27.346Z,12.13
2017-04-30T08:01:53.697Z,11.99
2017-04-30T08:04:20.031Z,11.98
2017-04-30T08:06:46.381Z,12.31
2017-04-30T08:09:12.791Z,12.45
2017-04-30T08:11:39.136Z,12.45
2017-04-30T08:14:05.465Z,13.08
2017-04-30T08:16:31.819Z,12.95
2017-04-30T08:18:58.166Z,13.16
2017-04-30T08:21:24.492Z,13.27
2017-04-30T08:23:50.798Z,13.17
2017-04-30T08:26:17.135Z,13.21
2017-04-30T08:28:43.573Z,13.46
2017-04-30T08:31:09.919Z,13.79
2017-04-30T08:33:36.219Z,13.99
2017-04-30T08:36:02.554Z,14.48
2017-04-30T08:38:28.909Z,14.31
2017-04-30T08:40:55.283Z,14.48
2017-04-30T08:43:21.631Z,14.62
2017-04-30T08:45:48.080Z,14.59
2017-04-30T08:48:14.392Z,14.69
2017-04-30T08:50:40.732Z,14.88
2017-04-30T08:53:07.059Z,15.14
2017-04-30T08:55:33.403Z,14.97
2017-04-30T08:57:59.725Z,15.72
2017-04-30T09:00:26.025Z,15.25
2017-04-30T09:02:52.379Z,15.71
2017-04-30T09:05:18.709Z,15.44
2017-04-30T09:07:45.048Z,15.82
2017-04-30T09:10:11.381Z,15.55
2017-04-30T09:12:37.715Z,15.79
2017-04-30T09:15:04.163Z,15.96
2017-04-30T09:17:30.442Z,16.53
2017-04-30T09:19:56.769Z,16.32
2017-04-30T09:22:23.118Z,16.33
2017-04-30T09:24:49.584Z,16.29
2017-04-30T09:27:15.891Z,16.79
2017-04-30T09:29:42.232Z,16.79
2017-04-30T09:32:08.561Z,16.63
2017-04-30T09:34:34.960Z,16.67
2017-04-30T09:37:01.294Z,16.96
2017-04-30T09:39:27.649Z,16.39
2017-04-30T09:41:53.998Z,16.76
2017-04-30T09:44:20.317Z,17.40
2017-04-30T09:46:46.685Z,17.40
2017-04-30T09:49:13.034Z,16.70
2017-04-30T09:51:39.445Z,16.55
2017-04-30T09:54:05.793Z,16.64
2017-04-30T09:56:32.125Z,16.72
2017-04-30T09:58:58.588Z,17.32
2017-04-30T10:01:24.995Z,16.79
2017-04-30T10:03:51.347Z,16.98
2017-04-30T10:06:17.718Z,17.33
2017-04-30T10:08:44.251Z,17.28
2017-04-30T10:11:10.719Z,17.17
2017-04-30T10:13:37.645Z,16.80
2017-04-30T10:16:04.080Z,17.47
2017-04-30T10:18:30.650Z,17.57
2017-04-30T10:20:56.991Z,17.71
2017-04-30T10:23:23.322Z,18.26
2017-04-30T10:25:49.702Z,17.93
2017-04-30T10:28:16.241Z,17.90
2017-04-30T10:30:42.558Z,17.92
2017-04-30T10:33:08.886Z,18.54
2017-04-30T10:35:35.258Z,18.10
2017-04-30T10:38:01.603Z,18.33
2017-04-30T10:40:27.936Z,18.01
2017-04-30T10:42:54.267Z,18.37
2017-04-30T10:45:20.635Z,18.41
2017-04-30T10:47:46.959Z,18.43
2017-04-30T10:50:13.314Z,18.42
2017-04-30T10:52:39.655Z,18.63
2017-04-30T10:55:06.170Z,18.95
2017-04-30T10:57:32.511Z,18.59
2017-04-30T10:59:58.848Z,18.58
2017-04-30T11:02:25.199Z,18.56
2017-04-30T11:04:51.665Z,18.83
2017-04-30T11:07:18.949Z,18.57
2017-04-30T11:09:45.279Z,19.58
2017-04-30T11:12:11.774Z,19.17
2017-04-30T11:14:38.097Z,18.90
2017-04-30T11:17:04.448Z,19.15
2017-04-30T11:19:30.762Z,19.59
2017-04-30T11:21:57.358Z,18.87
2017-04-30T11:24:23.698Z,19.66
2017-04-30T11:26:50.042Z,19.23
2017-04-30T11:29:16.393Z,19.21
2017-04-30T11:31:42.744Z,19.09
2017-04-30T11:34:09.095Z,19.49
2017-04-30T11:36:35.441Z,19.20
2017-04-30T11:39:01.764Z,19.42
2017-04-30T11:41:28.090Z,19.37
2017-04-30T11:43:54.435Z,19.93
2017-04-30T11:46:20.780Z,19.76
2017-04-30T11:48:47.123Z,19.29
2017-04-30T11:51:13.437Z,19.50
2017-04-30T11:53:39.783Z,19.80
2017-04-30T11:56:06.162Z,19.25
2017-04-30T11:58:32.643Z,19.16
2017-04-30T12:00:59.001Z,19.64
2017-04-30T12:03:25.317Z,20.03
2017-04-30T12:05:51.654Z,19.84
2017-04-30T12:08:18.138Z,19.37
2017-04-30T12:10:44.481Z,19.02
2017-04-30T12:13:10.819Z,19.58
2017-04-30T12:15:37.272Z,19.02
2017-04-30T12:18:03.730Z,19.12
2017-04-30T12:20:30.640Z,19.08
2017-04-30T12:22:56.934Z,19.12
2017-04-30T12:25:23.340Z,20.00
2017-04-30T12:27:49.690Z,20.24
2017-04-30T12:30:16.016Z,20.37
2017-04-30T12:32:42.377Z,20.24
2017-04-30T12:35:08.828Z,20.67
2017-04-30T12:37:35.208Z,20.46
2017-04-30T12:40:01.530Z,20.54
2017-04-30T12:42:27.851Z,20.76
2017-04-30T12:44:54.278Z,20.11
2017-04-30T12:47:20.665Z,20.04
2017-04-30T12:49:46.986Z,20.36
2017-04-30T12:52:13.322Z,20.42
2017-04-30T12:54:39.627Z,20.53
2017-04-30T12:57:05.965Z,20.40
2017-04-30T12:59:32.277Z,20.46
2017-04-30T13:01:58.617Z,20.42
2017-04-30T13:04:25.128Z,20.88
2017-04-30T13:06:51.512Z,20.93
2017-04-30T13:09:17.933Z,20.71
2017-04-30T13:11:44.285Z,20.77
2017-04-30T13:14:10.656Z,20.36
2017-04-30T13:16:37.033Z,21.04
2017-04-30T13:19:03.527Z,21.28
2017-04-30T13:21:29.894Z,21.32
2017-04-30T13:23:56.275Z,21.50
2017-04-30T13:26:22.639Z,21.10
2017-04-30T13:28:49.006Z,21.70
2017-04-30T13:31:15.372Z,20.79
2017-04-30T13:33:41.721Z,21.51
2017-04-30T13:36:08.050Z,21.87
2017-04-30T13:38:34.384Z,21.76
2017-04-30T13:41:00.728Z,21.43
2017-04-30T13:43:27.067Z,21.50
2017-04-30T13:45:53.382Z,21.41
2017-04-30T13:48:19.713Z,21.57
2017-04-30T13:50:46.049Z,21.53
2017-04-30T13:53:12.558Z,22.08
2017-04-30T13:55:38.885Z,21.45
2017-04-30T13:58:05.208Z,22.01
2017-04-30T14:00:31.639Z,21.57
2017-04-30T14:02:57.966Z,21.23
2017-04-30T14:05:24.333Z,22.30
2017-04-30T14:07:50.662Z,21.27
2017-04-30T14:10:17.421Z,21.96
2017-04-30T14:12:43.735Z,21.79
2017-04-30T14:15:10.107Z,21.37
2017-04-30T14:17:36.603Z,21.68
2017-04-30T14:20:02.959Z,21.28
2017-04-30T14:22:29.304Z,21.85
2017-04-30T14:24:56.172Z,20.78
2017-04-30T14:27:22.563Z,21.33
2017-04-30T14:29:48.927Z,21.18
2017-04-30T14:32:15.457Z,21.52
2017-04-30T14:34:42.275Z,21.66
2017-04-30T14:37:08.624Z,21.55
2017-04-30T14:39:34.998Z,21.40
2017-04-30T14:42:01.352Z,21.67
2017-04-30T14:44:27.733Z,21.54
2017-04-30T14:46:54.075Z,21.72
2017-04-30T14:49:20.428Z,22.37
2017-04-30T14:51:47.025Z,21.70
2017-04-30T14:54:13.379Z,21.91
2017-04-30T14:56:40.376Z,21.58
2017-04-30T14:59:06.805Z,21.54
2017-04-30T15:01:33.111Z,21.72
2017-04-30T15:03:59.461Z,21.47
2017-04-30T15:06:25.793Z,21.41
2017-04-30T15:08:52.353Z,21.78
2017-04-30T15:11:18.707Z,21.99
2017-04-30T15:13:45.053Z,22.08
2017-04-30T15:16:11.383Z,22.27
2017-04-30T15:18:37.898Z,22.02
2017-04-30T15:21:04.222Z,21.48
2017-04-30T15:23:30.580Z,21.50
2017-04-30T15:25:56.929Z,21.28
2017-04-30T15:28:23.387Z,21.28
2017-04-30T15:30:49.846Z,21.55
2017-04-30T15:33:16.234Z,21.85
2017-04-30T15:35:42.580Z,21.09
2017-04-30T15:38:08.913Z,21.01
2017-04-30T15:40:35.401Z,21.13
2017-04-30T15:43:01.748Z,21.27
2017-04-30T15:45:28.386Z,21.18
2017-04-30T15:47:54.745Z,21.17
2017-04-30T15:50:21.085Z,21.40
2017-04-30T15:52:47.405Z,20.99
2017-04-30T15:55:13.891Z,21.10
2017-04-30T15:57:40.225Z,21.08
2017-04-30T16:00:07.014Z,21.05
2017-04-30T16:02:33.689Z,21.54
2017-04-30T16:04:59.993Z,21.08
2017-04-30T16:07:26.374Z,21.39
2017-04-30T16:09:52.724Z,21.37
2017-04-30T16:12:19.212Z,20.99
2017-04-30T16:14:45.546Z,20.92
2017-04-30T16:17:11.866Z,21.14
2017-04-30T16:19:38.232Z,21.39
2017-04-30T16:22:04.554Z,20.54
2017-04-30T16:24:30.869Z,20.97
2017-04-30T16:26:57.199Z,21.09
2017-04-30T16:29:23.533Z,21.03
2017-04-30T16:31:49.881Z,20.92
2017-04-30T16:34:16.232Z,20.68
2017-04-30T16:36:42.573Z,20.60
2017-04-30T16:39:08.884Z,20.60
2017-04-30T16:41:35.219Z,20.76
2017-04-30T16:44:01.564Z,20.48
2017-04-30T16:46:27.905Z,20.89
2017-04-30T16:48:54.569Z,20.57
2017-04-30T16:51:20.898Z,20.62
2017-04-30T16:53:47.185Z,20.33
2017-04-30T16:56:13.515Z,20.26
2017-04-30T16:58:39.977Z,20.34
2017-04-30T17:01:06.293Z,20.33
2017-04-30T17:03:32.652Z,20.04
2017-04-30T17:05:58.976Z,20.29
2017-04-30T17:08:25.416Z,20.38
2017-04-30T17:10:51.733Z,20.25
2017-04-30T17:13:18.084Z,19.72
2017-04-30T17:15:44.417Z,19.93
2017-04-30T17:18:10.749Z,19.89
2017-04-30T17:20:37.169Z,19.83
2017-04-30T17:23:03.506Z,19.64
2017-04-30T17:25:29.824Z,19.75
2017-04-30T17:27:56.133Z,19.61
2017-04-30T17:30:22.452Z,19.64
2017-04-30T17:32:48.818Z,19.77
2017-04-30T17:35:15.296Z,19.67
2017-04-30T17:37:41.599Z,19.84
2017-04-30T17:40:07.968Z,19.20
2017-04-30T17:42:34.293Z,19.23
2017-04-30T17:45:00.900Z,19.20
2017-04-30T17:47:27.224Z,19.20
2017-04-30T17:49:53.542Z,19.08
2017-04-30T17:52:19.869Z,18.99
2017-04-30T17:54:47.087Z,19.02
2017-04-30T17:57:13.418Z,18.97
2017-04-30T17:59:39.764Z,18.89
2017-04-30T18:02:06.219Z,18.91
2017-04-30T18:04:32.581Z,18.78
2017-04-30T18:06:58.921Z,18.77
2017-04-30T18:09:25.247Z,18.48
2017-04-30T18:11:51.561Z,18.49
2017-04-30T18:14:17.903Z,18.46
2017-04-30T18:16:44.281Z,18.54
2017-04-30T18:19:10.616Z,18.41
2017-04-30T18:21:36.922Z,18.34
2017-04-30T18:24:03.260Z,18.33
2017-04-30T18:26:29.598Z,18.37
2017-04-30T18:28:56.793Z,18.11
2017-04-30T18:31:23.198Z,18.04
2017-04-30T18:33:49.517Z,17.79
2017-04-30T18:36:15.859Z,17.84
2017-04-30T18:38:42.185Z,17.71
2017-04-30T18:41:09.136Z,17.59
2017-04-30T18:43:35.478Z,17.71
2017-04-30T18:46:02.080Z,17.69
2017-04-30T18:48:28.421Z,17.62
2017-04-30T18:50:54.771Z,17.54
2017-04-30T18:53:21.111Z,17.51
2017-04-30T18:55:47.591Z,17.53
2017-04-30T18:58:13.930Z,17.40
2017-04-30T19:00:40.277Z,17.68
2017-04-30T19:03:06.593Z,17.39
2017-04-30T19:05:33.008Z,17.24
2017-04-30T19:07:59.349Z,17.32
2017-04-30T19:10:25.670Z,17.17
2017-04-30T19:12:51.982Z,17.15
2017-04-30T19:15:18.299Z,17.06
2017-04-30T19:17:44.612Z,16.92
2017-04-30T19:20:10.951Z,17.00
2017-04-30T19:22:37.273Z,16.83
2017-04-30T19:25:03.615Z,16.66
2017-04-30T19:27:29.959Z,16.54
2017-04-30T19:29:56.295Z,16.52
2017-04-30T19:32:22.618Z,16.48
2017-04-30T19:34:48.980Z,16.07
2017-04-30T19:37:15.328Z,16.37
2017-04-30T19:39:41.664Z,16.40
2017-04-30T19:42:08.126Z,16.26
2017-04-30T19:44:34.484Z,16.34
2017-04-30T19:47:00.831Z,16.26
2017-04-30T19:49:27.162Z,16.00
2017-04-30T19:51:53.574Z,15.88
2017-04-30T19:54:19.891Z,15.84
2017-04-30T19:56:46.263Z,15.77
2017-04-30T19:59:13.112Z,15.65
2017-04-30T20:01:39.414Z,15.56
2017-04-30T20:04:05.738Z,15.73
2017-04-30T20:06:32.067Z,15.83
2017-04-30T20:08:58.375Z,15.76
2017-04-30T20:11:24.716Z,15.59
2017-04-30T20:13:51.060Z,15.60
2017-04-30T20:16:17.412Z,15.18
2017-04-30T20:18:43.903Z,15.18
2017-04-30T20:21:10.245Z,15.30
2017-04-30T20:23:36.573Z,15.18
2017-04-30T20:26:02.928Z,14.97
2017-04-30T20:28:29.389Z,14.98
2017-04-30T20:30:55.726Z,14.88
2017-04-30T20:33:22.043Z,15.08
2017-04-30T20:35:48.386Z,15.09
2017-04-30T20:38:14.916Z,14.89
2017-04-30T20:40:41.245Z,14.51
2017-04-30T20:43:07.592Z,14.78
2017-04-30T20:45:33.946Z,14.64
2017-04-30T20:48:00.270Z,14.65
2017-04-30T20:50:26.585Z,14.49
2017-04-30T20:52:52.945Z,14.58
2017-04-30T20:55:19.247Z,14.31
2017-04-30T20:57:45.592Z,14.50
2017-04-30T21:00:11.918Z,14.53
2017-04-30T21:02:38.298Z,14.37
2017-04-30T21:05:04.777Z,14.43
2017-04-30T21:07:31.167Z,14.20
2017-04-30T21:09:57.495Z,14.28
2017-04-30T21:12:23.811Z,14.26
2017-04-30T21:14:50.454Z,14.23
2017-04-30T21:17:16.860Z,14.34
2017-04-30T21:19:43.185Z,14.24
2017-04-30T21:22:09.521Z,14.18
2017-04-30T21:24:35.901Z,14.34
2017-04-30T21:27:02.224Z,14.30
2017-04-30T21:29:28.606Z,14.17
2017-04-30T21:31:54.895Z,14.18
2017-04-30T21:34:21.229Z,14.08
2017-04-30T21:36:49.155Z,14.00
2017-04-30T21:39:16.424Z,13.94
2017-04-30T21:41:42.789Z,13.98
2017-04-30T21:44:09.108Z,13.86
2017-04-30T21:46:35.488Z,13.71
2017-04-30T21:49:01.859Z,13.83
2017-04-30T21:51:28.187Z,13.99
2017-04-30T21:53:54.507Z,13.73
2017-04-30T21:56:20.932Z,13.67
2017-04-30T21:58:47.281Z,13.40
2017-04-30T22:01:13.633Z,13.53
2017-04-30T22:03:39.986Z,13.41
2017-04-30T22:06:06.484Z,13.37
2017-04-30T22:08:32.814Z,13.29
2017-04-30T22:10:59.142Z,13.21
2017-04-30T22:13:25.470Z,13.27
2017-04-30T22:15:51.820Z,13.05
2017-04-30T22:18:18.840Z,13.09
2017-04-30T22:20:45.222Z,12.93
2017-04-30T22:23:11.729Z,12.93
2017-04-30T22:25:38.085Z,12.79
2017-04-30T22:28:04.411Z,12.83
2017-04-30T22:30:30.734Z,12.95
2017-04-30T22:32:57.066Z,12.85
2017-04-30T22:35:23.391Z,12.78
2017-04-30T22:37:49.729Z,12.74
2017-04-30T22:40:16.227Z,12.65
2017-04-30T22:42:42.568Z,12.76
2017-04-30T22:45:08.906Z,12.78
2017-04-30T22:47:35.268Z,12.66
2017-04-30T22:50:01.765Z,12.63
2017-04-30T22:52:28.111Z,12.64
2017-04-30T22:54:54.459Z,12.49
2017-04-30T22:57:20.812Z,12.78
2017-04-30T22:59:47.201Z,12.72
2017-04-30T23:02:13.553Z,12.58
2017-04-30T23:04:39.873Z,12.51
2017-04-30T23:07:06.217Z,12.42
2017-04-30T23:09:32.581Z,12.40
2017-04-30T23:11:58.913Z,12.27
2017-04-30T23:14:25.276Z,12.43
2017-04-30T23:16:51.753Z,12.28
2017-04-30T23:19:18.066Z,12.22
2017-04-30T23:21:44.394Z,12.47
2017-04-30T23:24:10.721Z,12.08
2017-04-30T23:26:37.281Z,12.32
2017-04-30T23:29:03.636Z,12.08
2017-04-30T23:31:29.967Z,12.19
2017-04-30T23:33:56.306Z,12.23
2017-04-30T23:36:22.682Z,12.11
2017-04-30T23:38:49.029Z,12.07
2017-04-30T23:41:15.367Z,12.08
2017-04-30T23:43:41.674Z,12.07
2017-04-30T23:46:08.022Z,12.15
2017-04-30T23:48:34.382Z,12.09
2017-04-30T23:51:00.776Z,11.78
2017-04-30T23:53:27.294Z,12.00
2017-04-30T23:55:53.644Z,12.08
2017-04-30T23:58:19.999Z,11.99
